createdAt,value
2022-08-31T00:02:23.771Z,9.23
2022-08-31T00:05:25.524Z,4.07
2022-08-31T00:08:27.739Z,4.20
2022-08-31T00:11:31.072Z,4.07
2022-08-31T00:14:33.111Z,4.43
2022-08-31T00:17:34.541Z,7.23
2022-08-31T00:20:36.287Z,6.07
2022-08-31T00:23:37.751Z,5.80
2022-08-31T00:26:40.262Z,6.70
2022-08-31T00:29:42.100Z,9.10
2022-08-31T00:32:43.550Z,5.23
2022-08-31T00:35:45.422Z,6.03
2022-08-31T00:38:48.288Z,6.30
2022-08-31T00:41:50.094Z,7.50
2022-08-31T00:44:52.046Z,5.07
2022-08-31T00:47:54.562Z,6.47
2022-08-31T00:50:57.512Z,8.27
2022-08-31T00:54:00.131Z,6.27
2022-08-31T00:57:02.676Z,4.97
2022-08-31T01:00:09.857Z,8.17
2022-08-31T01:03:11.838Z,4.50
2022-08-31T01:06:16.012Z,9.57
2022-08-31T01:09:21.008Z,4.90
2022-08-31T01:12:23.601Z,5.13
2022-08-31T01:15:27.736Z,7.03
2022-08-31T01:18:30.632Z,5.80
2022-08-31T01:21:39.645Z,6.13
2022-08-31T01:24:46.400Z,5.30
2022-08-31T01:27:48.020Z,5.63
2022-08-31T01:31:04.076Z,5.10
2022-08-31T01:34:06.822Z,5.37
2022-08-31T01:37:08.479Z,6.83
2022-08-31T01:40:11.242Z,5.87
2022-08-31T01:43:12.925Z,7.03
2022-08-31T01:46:15.902Z,5.90
2022-08-31T01:49:19.305Z,6.40
2022-08-31T01:52:21.008Z,5.30
2022-08-31T01:55:24.696Z,6.13
2022-08-31T01:58:26.224Z,8.37
2022-08-31T02:01:47.200Z,6.40
2022-08-31T02:04:50.865Z,7.63
2022-08-31T02:07:56.037Z,6.33
2022-08-31T02:10:57.456Z,5.53
2022-08-31T02:13:59.103Z,6.20
2022-08-31T02:17:00.597Z,5.63
2022-08-31T02:20:02.240Z,7.53
2022-08-31T02:23:03.765Z,5.57
2022-08-31T02:26:05.804Z,5.43
2022-08-31T02:29:07.648Z,5.50
2022-08-31T02:32:09.355Z,5.97
2022-08-31T02:35:21.302Z,6.77
2022-08-31T02:38:23.041Z,5.60
2022-08-31T02:41:25.375Z,5.93
2022-08-31T02:44:27.188Z,6.07
2022-08-31T02:47:30.949Z,7.83
2022-08-31T02:50:53.648Z,5.87
2022-08-31T02:53:55.269Z,5.90
2022-08-31T02:56:56.737Z,5.77
2022-08-31T02:59:58.344Z,5.93
2022-08-31T03:03:04.864Z,6.30
2022-08-31T03:06:06.603Z,6.40
2022-08-31T03:09:08.037Z,6.90
2022-08-31T03:12:09.494Z,7.13
2022-08-31T03:15:11.593Z,6.73
2022-08-31T03:18:13.273Z,8.33
2022-08-31T03:21:15.774Z,6.90
2022-08-31T03:24:21.164Z,6.23
2022-08-31T03:27:24.669Z,7.43
2022-08-31T03:30:27.614Z,6.43
2022-08-31T03:33:40.821Z,6.80
2022-08-31T03:36:42.360Z,7.10
2022-08-31T03:39:43.783Z,6.93
2022-08-31T03:42:46.121Z,6.10
2022-08-31T03:45:49.467Z,6.37
2022-08-31T03:48:51.423Z,7.73
2022-08-31T03:51:53.183Z,6.90
2022-08-31T03:54:56.477Z,7.97
2022-08-31T03:57:58.385Z,6.47
2022-08-31T04:01:00.033Z,6.07
2022-08-31T04:04:24.326Z,7.23
2022-08-31T04:07:44.398Z,6.03
2022-08-31T04:11:13.672Z,6.83
2022-08-31T04:14:33.956Z,6.77
2022-08-31T04:17:57.961Z,5.97
2022-08-31T04:21:25.246Z,6.07
2022-08-31T04:24:26.742Z,7.73
2022-08-31T04:27:28.188Z,5.80
2022-08-31T04:30:29.629Z,9.73
2022-08-31T04:33:31.081Z,5.73
2022-08-31T04:36:32.773Z,8.93
2022-08-31T04:39:34.588Z,6.17
2022-08-31T04:42:50.841Z,11.03
2022-08-31T04:45:55.956Z,5.67
2022-08-31T04:48:58.376Z,6.93
2022-08-31T04:51:59.838Z,6.33
2022-08-31T04:55:05.704Z,5.27
2022-08-31T04:58:07.335Z,5.80
2022-08-31T05:01:11.895Z,5.90
2022-08-31T05:04:45.757Z,5.93
2022-08-31T05:07:47.271Z,5.53
2022-08-31T05:10:48.764Z,7.00
2022-08-31T05:13:50.494Z,6.47
2022-08-31T05:16:52.552Z,5.37
2022-08-31T05:19:56.176Z,5.67
2022-08-31T05:22:58.353Z,9.47
2022-08-31T05:26:00.200Z,6.63
2022-08-31T05:29:04.389Z,6.23
2022-08-31T05:32:08.708Z,5.47
2022-08-31T05:35:10.184Z,5.33
2022-08-31T05:38:12.763Z,5.60
2022-08-31T05:41:14.773Z,6.13
2022-08-31T05:44:17.594Z,5.63
2022-08-31T05:47:19.234Z,5.70
2022-08-31T05:50:23.790Z,9.13
2022-08-31T05:53:27.078Z,6.17
2022-08-31T05:56:28.640Z,8.70
2022-08-31T05:59:32.938Z,6.67
2022-08-31T06:02:36.967Z,6.00
2022-08-31T06:05:38.483Z,7.87
2022-08-31T06:08:41.015Z,8.03
2022-08-31T06:11:42.580Z,5.90
2022-08-31T06:14:53.249Z,7.00
2022-08-31T06:17:55.289Z,10.47
2022-08-31T06:21:09.047Z,7.23
2022-08-31T06:24:12.030Z,10.77
2022-08-31T06:27:14.302Z,6.13
2022-08-31T06:30:22.001Z,9.73
2022-08-31T06:33:25.736Z,11.90
2022-08-31T06:36:38.350Z,9.93
2022-08-31T06:40:12.126Z,9.13
2022-08-31T06:43:31.980Z,8.10
2022-08-31T06:46:39.201Z,7.93
2022-08-31T06:49:53.698Z,6.77
2022-08-31T06:52:57.062Z,5.83
2022-08-31T06:56:21.062Z,5.57
2022-08-31T06:59:41.346Z,5.07
2022-08-31T07:03:21.226Z,5.40
2022-08-31T07:06:26.046Z,8.00
2022-08-31T07:09:27.662Z,6.97
2022-08-31T07:12:29.088Z,5.73
2022-08-31T07:15:30.566Z,5.97
2022-08-31T07:18:32.527Z,5.40
2022-08-31T07:21:39.070Z,5.10
2022-08-31T07:24:40.644Z,6.57
2022-08-31T07:27:42.144Z,6.17
2022-08-31T07:30:44.667Z,4.80
2022-08-31T07:33:50.752Z,5.20
2022-08-31T07:37:12.621Z,6.33
2022-08-31T07:40:33.019Z,10.57
2022-08-31T07:43:36.790Z,5.20
2022-08-31T07:46:40.637Z,6.53
2022-08-31T07:49:47.797Z,6.97
2022-08-31T07:53:06.968Z,5.30
2022-08-31T07:56:25.509Z,5.70
2022-08-31T07:59:41.232Z,7.20
2022-08-31T08:02:50.761Z,7.13
2022-08-31T08:05:55.879Z,6.47
2022-08-31T08:09:24.824Z,9.20
2022-08-31T08:12:37.849Z,9.47
2022-08-31T08:15:46.413Z,7.37
2022-08-31T08:19:08.169Z,10.93
2022-08-31T08:22:09.818Z,12.23
2022-08-31T08:25:34.695Z,7.80
2022-08-31T08:29:00.784Z,7.77
2022-08-31T08:32:02.552Z,8.90
2022-08-31T08:35:04.640Z,9.00
2022-08-31T08:38:07.981Z,10.07
2022-08-31T08:41:15.744Z,8.77
2022-08-31T08:44:18.424Z,9.87
2022-08-31T08:47:39.209Z,10.33
2022-08-31T08:50:43.977Z,11.57
2022-08-31T08:54:02.443Z,10.33
2022-08-31T08:57:21.069Z,12.90
2022-08-31T09:00:26.693Z,11.33
2022-08-31T09:03:48.934Z,10.70
2022-08-31T09:07:22.829Z,8.67
2022-08-31T09:10:35.622Z,12.40
2022-08-31T09:14:19.174Z,9.83
2022-08-31T09:18:00.220Z,9.73
2022-08-31T09:21:21.421Z,8.77
2022-08-31T09:24:27.520Z,8.00
2022-08-31T09:27:57.290Z,8.77
2022-08-31T09:30:58.866Z,9.60
2022-08-31T09:34:02.024Z,7.83
2022-08-31T09:37:16.209Z,9.93
2022-08-31T09:40:23.643Z,7.80
2022-08-31T09:43:34.966Z,7.93
2022-08-31T09:46:36.656Z,9.27
2022-08-31T09:49:39.339Z,6.80
2022-08-31T09:53:00.272Z,6.43
2022-08-31T09:56:20.466Z,9.20
2022-08-31T09:59:37.524Z,8.73
2022-08-31T10:02:40.079Z,7.33
2022-08-31T10:05:43.471Z,5.90
2022-08-31T10:08:57.857Z,8.20
2022-08-31T10:12:04.223Z,8.87
2022-08-31T10:15:16.304Z,10.43
2022-08-31T10:18:32.053Z,8.00
2022-08-31T10:21:51.994Z,6.70
2022-08-31T10:25:12.884Z,8.87
2022-08-31T10:28:31.613Z,7.37
2022-08-31T10:31:42.478Z,9.10
2022-08-31T10:35:05.598Z,9.03
2022-08-31T10:38:24.052Z,12.17
2022-08-31T10:41:30.770Z,9.50
2022-08-31T10:44:56.963Z,8.37
2022-08-31T10:47:59.380Z,9.80
2022-08-31T10:51:22.885Z,8.77
2022-08-31T10:54:54.506Z,10.70
2022-08-31T10:58:14.236Z,7.60
2022-08-31T11:01:22.790Z,9.30
2022-08-31T11:05:11.655Z,10.10
2022-08-31T11:08:25.210Z,10.00
2022-08-31T11:11:51.869Z,9.03
2022-08-31T11:15:17.691Z,10.83
2022-08-31T11:18:53.462Z,9.80
2022-08-31T11:22:19.008Z,9.83
2022-08-31T11:25:37.637Z,10.53
2022-08-31T11:29:09.983Z,11.97
2022-08-31T11:32:21.469Z,10.07
2022-08-31T11:36:08.632Z,11.20
2022-08-31T11:39:09.981Z,11.27
2022-08-31T11:42:26.725Z,10.40
2022-08-31T11:45:32.905Z,11.23
2022-08-31T11:48:57.907Z,12.23
2022-08-31T11:52:00.656Z,13.10
2022-08-31T11:55:15.026Z,13.67
2022-08-31T11:58:20.878Z,13.33
2022-08-31T12:01:35.441Z,12.57
2022-08-31T12:04:46.384Z,12.70
2022-08-31T12:07:48.358Z,12.67
2022-08-31T12:11:11.018Z,11.23
2022-08-31T12:14:25.738Z,12.87
2022-08-31T12:18:04.918Z,13.47
2022-08-31T12:21:43.143Z,13.93
2022-08-31T12:25:03.991Z,12.73
2022-08-31T12:28:29.130Z,13.10
2022-08-31T12:31:34.475Z,19.17
2022-08-31T12:34:40.887Z,13.40
2022-08-31T12:37:43.252Z,12.93
2022-08-31T12:40:47.980Z,12.57
2022-08-31T12:43:49.525Z,14.57
2022-08-31T12:47:16.480Z,12.13
2022-08-31T12:50:37.749Z,14.33
2022-08-31T12:53:51.096Z,12.80
2022-08-31T12:57:11.380Z,14.40
2022-08-31T13:00:20.580Z,15.17
2022-08-31T13:03:26.919Z,14.83
2022-08-31T13:06:37.240Z,12.30
2022-08-31T13:09:38.789Z,14.97
2022-08-31T13:12:48.182Z,12.20
2022-08-31T13:15:51.269Z,12.77
2022-08-31T13:19:00.589Z,11.50
2022-08-31T13:22:16.903Z,12.30
2022-08-31T13:25:28.017Z,12.93
2022-08-31T13:28:34.921Z,11.77
2022-08-31T13:31:49.521Z,12.53
2022-08-31T13:34:54.810Z,13.50
2022-08-31T13:38:04.883Z,12.03
2022-08-31T13:41:17.049Z,10.50
2022-08-31T13:44:22.266Z,10.13
2022-08-31T13:47:27.437Z,12.73
2022-08-31T13:50:53.447Z,10.77
2022-08-31T13:53:54.914Z,12.10
2022-08-31T13:57:08.084Z,13.57
2022-08-31T14:00:43.428Z,10.53
2022-08-31T14:03:59.382Z,11.33
2022-08-31T14:07:01.545Z,11.40
2022-08-31T14:10:14.064Z,10.83
2022-08-31T14:13:27.754Z,11.27
2022-08-31T14:16:34.955Z,10.87
2022-08-31T14:19:39.791Z,10.87
2022-08-31T14:22:45.563Z,9.50
2022-08-31T14:25:47.064Z,9.00
2022-08-31T14:28:53.164Z,13.17
2022-08-31T14:31:54.888Z,12.83
2022-08-31T14:34:57.802Z,7.90
2022-08-31T14:37:59.320Z,7.80
2022-08-31T14:41:00.792Z,9.03
2022-08-31T14:44:09.327Z,8.93
2022-08-31T14:47:12.109Z,10.73
2022-08-31T14:50:18.107Z,10.63
2022-08-31T14:53:20.931Z,9.07
2022-08-31T14:56:26.951Z,11.13
2022-08-31T14:59:29.292Z,10.93
2022-08-31T15:02:34.342Z,10.17
2022-08-31T15:05:39.146Z,8.33
2022-08-31T15:08:41.386Z,8.80
2022-08-31T15:11:45.073Z,9.03
2022-08-31T15:14:47.060Z,7.47
2022-08-31T15:17:51.392Z,8.33
2022-08-31T15:20:53.748Z,7.77
2022-08-31T15:23:55.245Z,7.30
2022-08-31T15:26:57.750Z,12.03
2022-08-31T15:30:07.968Z,8.87
2022-08-31T15:33:09.993Z,7.83
2022-08-31T15:36:15.381Z,9.03
2022-08-31T15:39:16.800Z,7.03
2022-08-31T15:42:22.720Z,8.20
2022-08-31T15:45:27.867Z,8.57
2022-08-31T15:48:41.741Z,6.97
2022-08-31T15:51:49.028Z,9.43
2022-08-31T15:54:50.633Z,7.80
2022-08-31T15:57:54.582Z,9.37
2022-08-31T16:00:56.198Z,8.27
2022-08-31T16:03:58.345Z,7.00
2022-08-31T16:07:00.852Z,8.17
2022-08-31T16:10:11.257Z,12.37
2022-08-31T16:13:15.716Z,8.13
2022-08-31T16:16:18.276Z,14.57
2022-08-31T16:19:34.490Z,6.73
2022-08-31T16:22:37.209Z,6.60
2022-08-31T16:25:48.126Z,5.80
2022-08-31T16:28:50.335Z,6.67
2022-08-31T16:31:52.061Z,6.53
2022-08-31T16:34:54.855Z,5.70
2022-08-31T16:37:56.356Z,6.27
2022-08-31T16:41:04.792Z,5.63
2022-08-31T16:44:19.687Z,5.70
2022-08-31T16:47:21.807Z,8.70
2022-08-31T16:50:23.296Z,8.43
2022-08-31T16:53:25.786Z,5.00
2022-08-31T16:56:29.480Z,5.10
2022-08-31T16:59:31.012Z,10.43
2022-08-31T17:02:33.114Z,6.10
2022-08-31T17:05:34.717Z,6.67
2022-08-31T17:08:41.275Z,7.07
2022-08-31T17:11:49.186Z,8.47
2022-08-31T17:14:52.509Z,7.67
2022-08-31T17:17:55.114Z,10.20
2022-08-31T17:20:57.395Z,10.53
2022-08-31T17:24:03.276Z,8.37
2022-08-31T17:27:07.413Z,12.00
2022-08-31T17:30:09.798Z,7.30
2022-08-31T17:33:15.873Z,12.13
2022-08-31T17:36:19.961Z,9.63
2022-08-31T17:39:23.113Z,8.10
2022-08-31T17:42:26.927Z,6.70
2022-08-31T17:45:28.767Z,9.23
2022-08-31T17:48:30.307Z,9.23
2022-08-31T17:51:33.830Z,8.30
2022-08-31T17:54:40.119Z,10.70
2022-08-31T17:57:42.012Z,8.37
2022-08-31T18:00:43.870Z,10.73
2022-08-31T18:03:45.474Z,12.77
2022-08-31T18:06:47.461Z,6.80
2022-08-31T18:09:48.980Z,8.77
2022-08-31T18:12:50.791Z,9.93
2022-08-31T18:15:52.527Z,6.73
2022-08-31T18:18:54.049Z,8.07
2022-08-31T18:21:56.482Z,8.13
2022-08-31T18:24:58.187Z,7.27
2022-08-31T18:28:03.282Z,7.50
2022-08-31T18:31:07.562Z,9.23
2022-08-31T18:34:12.035Z,9.27
2022-08-31T18:37:15.021Z,7.00
2022-08-31T18:40:34.885Z,8.73
2022-08-31T18:43:55.115Z,7.63
2022-08-31T18:47:02.163Z,9.47
2022-08-31T18:50:04.637Z,6.83
2022-08-31T18:53:07.465Z,8.00
2022-08-31T18:56:12.225Z,8.47
2022-08-31T18:59:15.650Z,7.03
2022-08-31T19:02:22.989Z,10.17
2022-08-31T19:05:24.880Z,6.97
2022-08-31T19:08:26.710Z,7.43
2022-08-31T19:11:28.411Z,7.33
2022-08-31T19:14:34.028Z,6.47
2022-08-31T19:17:36.464Z,8.73
2022-08-31T19:20:37.966Z,6.70
2022-08-31T19:23:39.468Z,10.07
2022-08-31T19:26:48.294Z,6.83
2022-08-31T19:29:55.630Z,9.43
2022-08-31T19:32:57.142Z,7.93
2022-08-31T19:36:03.498Z,11.77
2022-08-31T19:39:10.678Z,9.43
2022-08-31T19:42:13.306Z,7.80
2022-08-31T19:45:40.693Z,8.57
2022-08-31T19:48:44.387Z,7.80
2022-08-31T19:51:52.725Z,7.23
2022-08-31T19:54:54.215Z,7.60
2022-08-31T19:57:55.713Z,7.20
2022-08-31T20:01:01.288Z,7.50
2022-08-31T20:04:15.762Z,5.90
2022-08-31T20:07:20.136Z,7.13
2022-08-31T20:10:21.633Z,6.20
2022-08-31T20:13:25.198Z,5.47
2022-08-31T20:16:33.389Z,5.00
2022-08-31T20:19:38.477Z,4.77
2022-08-31T20:22:40.390Z,4.93
2022-08-31T20:25:46.959Z,7.07
2022-08-31T20:28:50.517Z,4.50
2022-08-31T20:31:52.595Z,4.40
2022-08-31T20:34:55.771Z,7.90
2022-08-31T20:37:57.321Z,5.17
2022-08-31T20:41:03.056Z,6.77
2022-08-31T20:44:10.480Z,7.93
2022-08-31T20:47:30.535Z,4.93
2022-08-31T20:50:32.139Z,6.67
2022-08-31T20:53:42.610Z,3.60
2022-08-31T20:56:45.526Z,9.33
2022-08-31T20:59:47.281Z,4.40
2022-08-31T21:02:49.739Z,4.70
2022-08-31T21:05:52.039Z,5.00
2022-08-31T21:08:56.768Z,3.80
2022-08-31T21:11:59.065Z,3.97
2022-08-31T21:15:00.464Z,4.33
2022-08-31T21:18:01.957Z,4.50
2022-08-31T21:21:09.826Z,8.67
2022-08-31T21:24:13.707Z,4.70
2022-08-31T21:27:17.695Z,5.00
2022-08-31T21:30:19.124Z,2.80
2022-08-31T21:33:21.061Z,3.10
2022-08-31T21:36:23.581Z,3.30
2022-08-31T21:39:25.065Z,3.73
2022-08-31T21:42:26.997Z,2.70
2022-08-31T21:45:28.761Z,5.10
2022-08-31T21:48:32.781Z,2.77
2022-08-31T21:51:37.304Z,2.73
2022-08-31T21:54:40.832Z,2.70
2022-08-31T21:57:43.235Z,6.03
2022-08-31T22:00:45.114Z,4.33
2022-08-31T22:03:48.957Z,2.73
2022-08-31T22:06:50.441Z,4.43
2022-08-31T22:09:51.853Z,2.80
2022-08-31T22:12:53.273Z,5.10
2022-08-31T22:15:55.906Z,3.13
2022-08-31T22:19:01.423Z,3.07
2022-08-31T22:22:08.958Z,3.87
2022-08-31T22:25:13.284Z,3.03
2022-08-31T22:28:14.876Z,3.53
2022-08-31T22:31:19.677Z,2.77
2022-08-31T22:34:22.281Z,6.50
2022-08-31T22:37:23.715Z,5.23
2022-08-31T22:40:25.236Z,5.77
2022-08-31T22:43:26.674Z,3.20
2022-08-31T22:46:28.332Z,3.60
2022-08-31T22:49:30.125Z,3.83
2022-08-31T22:52:32.426Z,3.40
2022-08-31T22:55:38.279Z,4.60
2022-08-31T22:58:40.805Z,3.33
2022-08-31T23:01:52.922Z,2.90
2022-08-31T23:04:54.516Z,3.17
2022-08-31T23:07:55.926Z,3.23
2022-08-31T23:10:57.320Z,4.03
2022-08-31T23:14:01.902Z,4.33
2022-08-31T23:17:09.023Z,4.07
2022-08-31T23:20:16.057Z,5.13
2022-08-31T23:23:17.489Z,3.90
2022-08-31T23:26:20.998Z,3.40
2022-08-31T23:29:22.400Z,2.80
2022-08-31T23:32:27.763Z,4.10
2022-08-31T23:35:29.223Z,3.00
2022-08-31T23:38:34.990Z,3.00
2022-08-31T23:41:38.825Z,3.67
2022-08-31T23:44:43.400Z,4.10
2022-08-31T23:47:44.951Z,3.37
2022-08-31T23:50:46.369Z,3.73
2022-08-31T23:54:00.192Z,3.33
2022-08-31T23:57:02.132Z,3.87
